Mitiwanga, Ohio
Current Conditions -  °F | °C
As of 11:06 AM on Thursday 30 Oct 2014 (Local Time) from KPCW Reporting Station
Scattered Clouds Scattered Clouds  
Wind Chill: 50°   Ceiling: Unl
Heat Index: 50°   Visibility: 10mi
Dew Point: 37°   Wind: 5mph
Humidity: 62%   Direction: 320°NW
Pressure: 30.14"   Gusts: NA
Location:  41.3748°N, 82.5554°W
Report Text: KPCW 301506Z AUTO 32004KT 10SM SCT024 10/03 A3014 RMK AO2 $
Loading
Personal Weather Stations






























Interactive Weather Map
Tropical Storm Tracking
New forecast layout! Learn more

10-Day Weather Forecast

Advertisements
Track Severe Weather on mobile